createdAt,value
2018-07-31T00:01:00.176Z,4.83
2018-07-31T00:03:28.915Z,4.80
2018-07-31T00:05:57.686Z,5.30
2018-07-31T00:08:26.472Z,5.00
2018-07-31T00:10:55.214Z,4.57
2018-07-31T00:13:24.022Z,4.87
2018-07-31T00:15:52.336Z,4.97
2018-07-31T00:18:20.736Z,5.03
2018-07-31T00:20:49.119Z,4.50
2018-07-31T00:23:17.502Z,4.53
2018-07-31T00:25:45.947Z,5.53
2018-07-31T00:28:14.700Z,5.33
2018-07-31T00:30:43.451Z,5.03
2018-07-31T00:33:11.790Z,4.83
2018-07-31T00:35:40.568Z,4.73
2018-07-31T00:38:09.204Z,5.10
2018-07-31T00:40:37.597Z,5.13
2018-07-31T00:43:05.976Z,4.67
2018-07-31T00:45:34.706Z,5.97
2018-07-31T00:48:03.427Z,5.63
2018-07-31T00:50:32.165Z,5.20
2018-07-31T00:53:00.916Z,6.30
2018-07-31T00:55:29.306Z,4.83
2018-07-31T00:57:57.829Z,5.40
2018-07-31T01:00:26.184Z,4.87
2018-07-31T01:02:54.900Z,4.60
2018-07-31T01:05:23.656Z,5.10
2018-07-31T01:07:52.037Z,5.50
2018-07-31T01:10:20.839Z,5.07
2018-07-31T01:12:49.246Z,5.03
2018-07-31T01:15:17.995Z,5.23
2018-07-31T01:17:46.394Z,4.97
2018-07-31T01:20:14.808Z,4.93
2018-07-31T01:22:43.229Z,5.30
2018-07-31T01:25:12.005Z,4.60
2018-07-31T01:27:40.358Z,5.43
2018-07-31T01:30:09.082Z,5.30
2018-07-31T01:32:38.266Z,5.60
2018-07-31T01:35:07.378Z,5.30
2018-07-31T01:37:35.721Z,5.60
2018-07-31T01:40:04.126Z,5.73
2018-07-31T01:42:32.847Z,5.80
2018-07-31T01:45:01.622Z,5.43
2018-07-31T01:47:30.003Z,5.80
2018-07-31T01:49:58.423Z,5.40
2018-07-31T01:52:26.776Z,6.13
2018-07-31T01:54:55.581Z,5.53
2018-07-31T01:57:24.336Z,5.90
2018-07-31T01:59:52.750Z,5.70
2018-07-31T02:02:21.074Z,5.33
2018-07-31T02:04:49.877Z,5.47
2018-07-31T02:07:18.665Z,4.97
2018-07-31T02:09:47.026Z,5.33
2018-07-31T02:12:15.440Z,5.50
2018-07-31T02:14:43.812Z,5.60
2018-07-31T02:17:12.228Z,5.37
2018-07-31T02:19:40.590Z,5.27
2018-07-31T02:22:09.362Z,5.50
2018-07-31T02:24:37.730Z,6.23
2018-07-31T02:27:06.629Z,6.00
2018-07-31T02:29:40.320Z,5.50
2018-07-31T02:32:08.713Z,6.40
2018-07-31T02:34:37.496Z,5.47
2018-07-31T02:37:05.998Z,5.53
2018-07-31T02:39:34.778Z,6.13
2018-07-31T02:42:03.139Z,6.53
2018-07-31T02:44:31.897Z,6.47
2018-07-31T02:47:00.708Z,6.53
2018-07-31T02:49:29.483Z,6.20
2018-07-31T02:51:57.856Z,6.67
2018-07-31T02:54:26.190Z,6.40
2018-07-31T02:56:54.913Z,6.67
2018-07-31T02:59:23.270Z,6.50
2018-07-31T03:01:52.012Z,6.27
2018-07-31T03:04:20.374Z,6.67
2018-07-31T03:06:48.747Z,6.33
2018-07-31T03:09:17.161Z,5.93
2018-07-31T03:11:45.594Z,6.20
2018-07-31T03:14:13.949Z,6.43
2018-07-31T03:16:42.337Z,6.00
2018-07-31T03:19:10.726Z,5.60
2018-07-31T03:21:39.064Z,5.97
2018-07-31T03:24:08.209Z,5.43
2018-07-31T03:26:36.952Z,6.30
2018-07-31T03:29:05.367Z,5.90
2018-07-31T03:31:33.733Z,5.27
2018-07-31T03:34:02.123Z,6.50
2018-07-31T03:36:30.494Z,6.17
2018-07-31T03:38:59.269Z,6.47
2018-07-31T03:41:27.663Z,6.33
2018-07-31T03:43:56.071Z,6.33
2018-07-31T03:46:24.510Z,6.43
2018-07-31T03:48:52.909Z,6.00
2018-07-31T03:51:21.296Z,6.77
2018-07-31T03:53:49.677Z,6.10
2018-07-31T03:56:18.090Z,6.37
2018-07-31T03:58:46.836Z,6.70
2018-07-31T04:01:16.067Z,6.03
2018-07-31T04:03:44.404Z,6.13
2018-07-31T04:06:13.224Z,6.23
2018-07-31T04:08:42.026Z,6.53
2018-07-31T04:11:10.490Z,6.77
2018-07-31T04:13:38.976Z,6.77
2018-07-31T04:16:07.445Z,6.00
2018-07-31T04:18:36.219Z,7.03
2018-07-31T04:21:04.589Z,6.90
2018-07-31T04:23:32.982Z,7.03
2018-07-31T04:26:01.417Z,5.97
2018-07-31T04:28:29.824Z,6.93
2018-07-31T04:30:58.661Z,6.40
2018-07-31T04:33:33.340Z,6.23
2018-07-31T04:36:01.735Z,6.80
2018-07-31T04:38:30.125Z,6.87
2018-07-31T04:40:59.209Z,6.93
2018-07-31T04:43:27.559Z,6.47
2018-07-31T04:45:56.271Z,7.57
2018-07-31T04:48:24.656Z,7.57
2018-07-31T04:50:53.538Z,7.27
2018-07-31T04:53:21.963Z,7.87
2018-07-31T04:55:50.736Z,7.43
2018-07-31T04:58:19.412Z,8.17
2018-07-31T05:00:47.752Z,7.50
2018-07-31T05:03:16.464Z,7.10
2018-07-31T05:05:45.236Z,7.13
2018-07-31T05:10:41.446Z,6.40
2018-07-31T05:13:10.224Z,7.57
2018-07-31T05:15:38.633Z,7.47
2018-07-31T05:18:06.974Z,6.23
2018-07-31T05:20:35.427Z,6.97
2018-07-31T05:23:03.829Z,7.33
2018-07-31T05:25:32.579Z,6.53
2018-07-31T05:28:00.978Z,6.30
2018-07-31T05:30:29.689Z,5.87
2018-07-31T05:32:58.064Z,6.13
2018-07-31T05:35:26.425Z,6.27
2018-07-31T05:37:54.830Z,6.13
2018-07-31T05:40:23.553Z,6.00
2018-07-31T05:42:51.944Z,6.83
2018-07-31T05:45:20.324Z,6.47
2018-07-31T05:47:49.065Z,6.83
2018-07-31T05:50:17.438Z,6.93
2018-07-31T05:52:46.204Z,6.50
2018-07-31T05:55:14.574Z,7.23
2018-07-31T05:57:43.369Z,6.53
2018-07-31T06:00:11.791Z,7.40
2018-07-31T06:02:40.619Z,7.40
2018-07-31T06:05:09.470Z,7.33
2018-07-31T06:07:38.306Z,8.13
2018-07-31T06:10:07.863Z,7.90
2018-07-31T06:12:36.642Z,6.97
2018-07-31T06:15:05.797Z,6.40
2018-07-31T06:17:34.161Z,7.17
2018-07-31T06:20:02.723Z,7.30
2018-07-31T06:22:31.551Z,6.37
2018-07-31T06:25:00.293Z,6.40
2018-07-31T06:27:28.638Z,6.37
2018-07-31T06:29:57.378Z,6.53
2018-07-31T06:32:25.764Z,6.20
2018-07-31T06:34:54.518Z,7.07
2018-07-31T06:37:23.274Z,5.47
2018-07-31T06:39:52.024Z,6.63
2018-07-31T06:42:20.845Z,7.57
2018-07-31T06:44:49.544Z,7.73
2018-07-31T06:47:18.312Z,7.23
2018-07-31T06:49:46.649Z,7.27
2018-07-31T06:52:15.047Z,7.03
2018-07-31T06:54:43.815Z,6.47
2018-07-31T06:57:12.658Z,7.43
2018-07-31T06:59:41.021Z,6.90
2018-07-31T07:02:09.794Z,8.07
2018-07-31T07:04:38.594Z,7.30
2018-07-31T07:07:06.956Z,6.40
2018-07-31T07:09:35.693Z,6.37
2018-07-31T07:12:04.102Z,7.47
2018-07-31T07:14:32.470Z,7.20
2018-07-31T07:17:00.852Z,7.23
2018-07-31T07:19:29.573Z,7.23
2018-07-31T07:21:58.334Z,6.50
2018-07-31T07:24:26.706Z,6.73
2018-07-31T07:26:55.593Z,7.87
2018-07-31T07:29:23.952Z,6.37
2018-07-31T07:31:52.322Z,7.70
2018-07-31T07:34:20.711Z,6.47
2018-07-31T07:36:49.505Z,6.10
2018-07-31T07:39:18.281Z,7.57
2018-07-31T07:41:47.028Z,7.00
2018-07-31T07:44:15.811Z,6.63
2018-07-31T07:46:44.151Z,8.43
2018-07-31T07:49:12.901Z,7.50
2018-07-31T07:51:41.269Z,7.67
2018-07-31T07:54:10.153Z,6.67
2018-07-31T07:56:38.423Z,8.00
2018-07-31T07:59:06.766Z,6.63
2018-07-31T08:01:35.548Z,6.67
2018-07-31T08:04:04.401Z,7.40
2018-07-31T08:06:32.815Z,7.17
2018-07-31T08:09:01.160Z,6.37
2018-07-31T08:11:29.874Z,7.40
2018-07-31T08:13:58.306Z,6.77
2018-07-31T08:16:27.077Z,6.17
2018-07-31T08:18:55.581Z,6.60
2018-07-31T08:21:24.401Z,7.63
2018-07-31T08:23:53.181Z,6.47
2018-07-31T08:26:21.977Z,7.47
2018-07-31T08:28:50.626Z,6.70
2018-07-31T08:31:19.396Z,7.47
2018-07-31T08:33:52.894Z,8.77
2018-07-31T08:36:22.573Z,7.10
2018-07-31T08:38:51.463Z,8.80
2018-07-31T08:41:20.188Z,8.73
2018-07-31T08:43:48.557Z,10.20
2018-07-31T08:46:17.303Z,8.63
2018-07-31T08:48:46.266Z,8.80
2018-07-31T08:51:14.705Z,8.30
2018-07-31T08:53:43.098Z,9.33
2018-07-31T08:56:11.456Z,9.70
2018-07-31T08:58:40.716Z,8.03
2018-07-31T09:01:09.129Z,8.97
2018-07-31T09:03:38.083Z,9.00
2018-07-31T09:06:07.272Z,8.43
2018-07-31T09:08:36.291Z,8.37
2018-07-31T09:11:05.049Z,9.00
2018-07-31T09:13:39.006Z,7.90
2018-07-31T09:16:07.914Z,9.20
2018-07-31T09:18:37.093Z,7.77
2018-07-31T09:21:05.546Z,6.93
2018-07-31T09:23:34.326Z,8.13
2018-07-31T09:26:03.102Z,8.90
2018-07-31T09:28:31.511Z,7.13
2018-07-31T09:31:05.482Z,7.87
2018-07-31T09:33:33.808Z,7.50
2018-07-31T09:36:02.293Z,7.53
2018-07-31T09:38:31.044Z,6.67
2018-07-31T09:40:59.853Z,6.73
2018-07-31T09:43:28.245Z,6.43
2018-07-31T09:45:57.043Z,6.30
2018-07-31T09:48:25.406Z,5.87
2018-07-31T09:50:53.812Z,5.23
2018-07-31T09:53:22.591Z,6.17
2018-07-31T09:55:51.393Z,6.03
2018-07-31T09:58:19.881Z,6.40
2018-07-31T10:00:53.652Z,4.70
2018-07-31T10:03:22.474Z,4.40
2018-07-31T10:05:51.170Z,5.00
2018-07-31T10:08:20.825Z,4.67
2018-07-31T10:10:51.357Z,4.87
2018-07-31T10:13:19.885Z,4.63
2018-07-31T10:15:48.686Z,4.00
2018-07-31T10:18:17.610Z,4.20
2018-07-31T10:20:46.412Z,4.17
2018-07-31T10:23:15.141Z,4.67
2018-07-31T10:25:43.949Z,3.50
2018-07-31T10:28:12.332Z,3.90
2018-07-31T10:30:41.150Z,5.50
2018-07-31T10:33:09.564Z,4.30
2018-07-31T10:35:38.034Z,4.27
2018-07-31T10:38:06.859Z,4.40
2018-07-31T10:40:35.738Z,4.10
2018-07-31T10:43:04.165Z,4.17
2018-07-31T10:45:32.943Z,3.87
2018-07-31T10:48:01.724Z,3.90
2018-07-31T10:50:30.545Z,3.70
2018-07-31T10:52:59.324Z,3.95
2018-07-31T10:55:28.123Z,4.05
2018-07-31T10:57:56.909Z,4.00
2018-07-31T11:00:25.391Z,3.92
2018-07-31T11:02:54.196Z,3.40
2018-07-31T11:05:22.540Z,3.50
2018-07-31T11:07:51.305Z,3.77
2018-07-31T11:10:20.118Z,3.80
2018-07-31T11:12:48.885Z,3.25
2018-07-31T11:15:17.742Z,3.55
2018-07-31T11:17:46.160Z,3.83
2018-07-31T11:20:14.959Z,3.47
2018-07-31T11:22:43.767Z,3.25
2018-07-31T11:25:12.622Z,3.35
2018-07-31T11:27:41.544Z,3.45
2018-07-31T11:30:10.383Z,3.60
2018-07-31T11:32:38.749Z,3.30
2018-07-31T11:35:07.558Z,2.95
2018-07-31T11:37:36.352Z,3.30
2018-07-31T11:40:05.253Z,3.10
2018-07-31T11:42:34.027Z,3.22
2018-07-31T11:45:02.787Z,3.58
2018-07-31T11:47:31.570Z,2.95
2018-07-31T11:50:00.368Z,3.37
2018-07-31T11:52:28.738Z,3.30
2018-07-31T11:54:57.117Z,2.90
2018-07-31T11:57:25.894Z,3.00
2018-07-31T11:59:54.659Z,2.25
2018-07-31T12:02:23.417Z,2.80
2018-07-31T12:04:51.808Z,2.87
2018-07-31T12:07:20.523Z,3.05
2018-07-31T12:09:49.368Z,2.50
2018-07-31T12:12:18.135Z,3.00
2018-07-31T12:14:46.895Z,2.90
2018-07-31T12:17:15.669Z,2.90
2018-07-31T12:19:44.442Z,2.90
2018-07-31T12:22:13.241Z,2.30
2018-07-31T12:24:42.328Z,2.90
2018-07-31T12:27:10.723Z,2.60
2018-07-31T12:29:39.496Z,2.92
2018-07-31T12:32:08.375Z,2.60
2018-07-31T12:34:37.131Z,3.10
2018-07-31T12:37:06.115Z,2.87
2018-07-31T12:39:34.860Z,2.90
2018-07-31T12:42:03.689Z,3.17
2018-07-31T12:44:32.084Z,2.60
2018-07-31T12:47:00.970Z,2.60
2018-07-31T12:49:29.756Z,2.40
2018-07-31T12:51:58.532Z,2.62
2018-07-31T12:54:26.905Z,2.70
2018-07-31T12:56:55.726Z,2.95
2018-07-31T12:59:24.095Z,2.50
2018-07-31T13:01:52.876Z,2.87
2018-07-31T13:04:21.710Z,2.62
2018-07-31T13:06:50.450Z,2.50
2018-07-31T13:09:19.306Z,2.25
2018-07-31T13:11:47.689Z,2.00
2018-07-31T13:14:16.055Z,2.40
2018-07-31T13:16:44.881Z,2.12
2018-07-31T13:19:13.624Z,2.00
2018-07-31T13:21:42.406Z,2.20
2018-07-31T13:24:11.220Z,2.70
2018-07-31T13:26:39.923Z,2.58
2018-07-31T13:29:09.041Z,2.40
2018-07-31T13:31:37.752Z,2.17
2018-07-31T13:34:06.493Z,2.10
2018-07-31T13:36:35.266Z,2.52
2018-07-31T13:39:06.398Z,2.42
2018-07-31T13:41:35.182Z,2.40
2018-07-31T13:44:04.634Z,2.40
2018-07-31T13:46:33.326Z,2.33
2018-07-31T13:49:01.653Z,2.00
2018-07-31T13:51:30.544Z,2.58
2018-07-31T13:53:59.277Z,2.30
2018-07-31T13:56:28.022Z,2.33
2018-07-31T13:58:56.739Z,2.12
2018-07-31T14:01:25.154Z,2.05
2018-07-31T14:03:53.912Z,2.08
2018-07-31T14:06:22.334Z,2.77
2018-07-31T14:08:51.060Z,2.30
2018-07-31T14:11:19.915Z,2.05
2018-07-31T14:13:48.746Z,2.37
2018-07-31T14:16:17.090Z,2.17
2018-07-31T14:18:45.891Z,2.17
2018-07-31T14:21:14.652Z,2.08
2018-07-31T14:23:43.010Z,2.20
2018-07-31T14:26:11.832Z,2.20
2018-07-31T14:28:40.608Z,2.12
2018-07-31T14:31:09.323Z,1.87
2018-07-31T14:33:38.124Z,1.72
2018-07-31T14:36:07.563Z,1.70
2018-07-31T14:38:36.317Z,1.85
2018-07-31T14:41:05.992Z,1.80
2018-07-31T14:43:34.750Z,1.90
2018-07-31T14:46:03.141Z,1.92
2018-07-31T14:48:32.227Z,2.25
2018-07-31T14:51:01.893Z,1.75
2018-07-31T14:53:36.136Z,1.85
2018-07-31T14:56:04.906Z,1.75
2018-07-31T14:58:33.694Z,1.87
2018-07-31T15:01:02.524Z,1.90
2018-07-31T15:03:31.265Z,1.75
2018-07-31T15:06:00.123Z,1.85
2018-07-31T15:08:28.874Z,2.00
2018-07-31T15:10:57.751Z,1.67
2018-07-31T15:13:26.506Z,1.98
2018-07-31T15:15:55.244Z,1.47
2018-07-31T15:18:24.018Z,2.10
2018-07-31T15:20:52.414Z,2.15
2018-07-31T15:23:21.203Z,2.00
2018-07-31T15:25:50.056Z,1.98
2018-07-31T15:28:19.307Z,1.80
2018-07-31T15:30:48.049Z,1.95
2018-07-31T15:33:16.421Z,1.80
2018-07-31T15:35:44.841Z,2.15
2018-07-31T15:38:13.627Z,2.12
2018-07-31T15:40:42.475Z,2.05
2018-07-31T15:43:10.877Z,1.90
2018-07-31T15:45:40.227Z,2.22
2018-07-31T15:48:08.650Z,2.08
2018-07-31T15:50:37.407Z,2.00
2018-07-31T15:53:05.857Z,2.20
2018-07-31T15:55:34.670Z,1.92
2018-07-31T15:58:03.386Z,2.08
2018-07-31T16:00:32.179Z,2.02
2018-07-31T16:03:00.567Z,1.80
2018-07-31T16:05:29.345Z,1.90
2018-07-31T16:07:58.162Z,2.40
2018-07-31T16:10:26.553Z,2.17
2018-07-31T16:12:55.355Z,2.00
2018-07-31T16:15:24.159Z,1.90
2018-07-31T16:17:52.588Z,1.77
2018-07-31T16:20:21.556Z,2.10
2018-07-31T16:22:50.531Z,1.62
2018-07-31T16:25:19.999Z,2.10
2018-07-31T16:27:48.816Z,2.15
2018-07-31T16:30:17.528Z,1.75
2018-07-31T16:32:45.944Z,2.30
2018-07-31T16:35:14.743Z,2.25
2018-07-31T16:37:43.161Z,1.82
2018-07-31T16:40:11.548Z,2.08
2018-07-31T16:42:39.965Z,2.20
2018-07-31T16:45:08.385Z,2.35
2018-07-31T16:47:37.260Z,2.25
2018-07-31T16:50:06.040Z,2.10
2018-07-31T16:52:34.815Z,2.10
2018-07-31T16:55:03.681Z,2.20
2018-07-31T16:57:32.470Z,2.30
2018-07-31T17:00:01.255Z,2.45
2018-07-31T17:02:30.020Z,2.58
2018-07-31T17:04:58.746Z,2.12
2018-07-31T17:07:27.066Z,2.30
2018-07-31T17:09:55.471Z,1.72
2018-07-31T17:12:23.882Z,2.30
2018-07-31T17:14:52.695Z,2.27
2018-07-31T17:17:21.496Z,2.30
2018-07-31T17:19:50.236Z,2.35
2018-07-31T17:22:18.991Z,2.10
2018-07-31T17:24:47.324Z,1.90
2018-07-31T17:27:16.126Z,2.08
2018-07-31T17:29:44.945Z,2.10
2018-07-31T17:32:13.411Z,2.17
2018-07-31T17:34:42.185Z,2.00
2018-07-31T17:37:10.975Z,2.47
2018-07-31T17:39:39.724Z,2.40
2018-07-31T17:42:08.111Z,2.05
2018-07-31T17:44:36.619Z,2.47
2018-07-31T17:47:05.315Z,2.30
2018-07-31T17:49:34.114Z,2.35
2018-07-31T17:52:02.899Z,2.12
2018-07-31T17:54:31.307Z,2.20
2018-07-31T17:57:00.067Z,2.35
2018-07-31T17:59:28.839Z,1.90
2018-07-31T18:01:57.613Z,2.52
2018-07-31T18:04:26.345Z,2.60
2018-07-31T18:06:55.158Z,2.65
2018-07-31T18:09:23.528Z,2.30
2018-07-31T18:11:52.274Z,3.27
2018-07-31T18:14:21.188Z,2.87
2018-07-31T18:16:49.844Z,3.00
2018-07-31T18:19:18.643Z,3.10
2018-07-31T18:21:46.982Z,2.83
2018-07-31T18:24:15.403Z,2.77
2018-07-31T18:26:43.808Z,2.90
2018-07-31T18:29:12.228Z,3.17
2018-07-31T18:31:41.072Z,2.63
2018-07-31T18:34:09.877Z,3.10
2018-07-31T18:36:38.288Z,2.57
2018-07-31T18:39:10.135Z,3.57
2018-07-31T18:41:39.025Z,3.40
2018-07-31T18:44:07.904Z,3.50
2018-07-31T18:46:36.618Z,3.10
2018-07-31T18:49:05.475Z,3.17
2018-07-31T18:51:34.667Z,3.17
2018-07-31T18:54:03.065Z,3.43
2018-07-31T18:56:31.462Z,3.27
2018-07-31T18:58:59.859Z,3.40
2018-07-31T19:01:28.316Z,3.20
2018-07-31T19:03:58.276Z,2.97
2018-07-31T19:06:26.683Z,3.60
2018-07-31T19:08:55.422Z,3.07
2018-07-31T19:11:24.160Z,3.27
2018-07-31T19:13:52.528Z,3.37
2018-07-31T19:16:21.323Z,2.90
2018-07-31T19:18:49.676Z,3.20
2018-07-31T19:21:18.475Z,2.90
2018-07-31T19:23:46.833Z,3.67
2018-07-31T19:26:15.876Z,3.20
2018-07-31T19:28:44.657Z,3.03
2018-07-31T19:31:13.177Z,3.10
2018-07-31T19:33:41.967Z,3.00
2018-07-31T19:36:11.435Z,3.47
2018-07-31T19:38:39.884Z,2.97
2018-07-31T19:41:08.653Z,3.20
2018-07-31T19:43:37.451Z,2.97
2018-07-31T19:46:06.283Z,3.00
2018-07-31T19:48:35.042Z,3.23
2018-07-31T19:51:03.433Z,2.90
2018-07-31T19:53:32.641Z,3.00
2018-07-31T19:56:01.654Z,2.93
2018-07-31T19:58:30.375Z,3.03
2018-07-31T20:00:58.750Z,3.10
2018-07-31T20:03:27.887Z,2.80
2018-07-31T20:05:56.213Z,2.90
2018-07-31T20:08:25.072Z,3.17
2018-07-31T20:10:53.881Z,2.80
2018-07-31T20:13:22.246Z,3.10
2018-07-31T20:15:50.990Z,3.03
2018-07-31T20:18:19.752Z,2.97
2018-07-31T20:20:48.120Z,2.93
2018-07-31T20:23:16.566Z,2.83
2018-07-31T20:25:44.975Z,2.97
2018-07-31T20:28:13.834Z,3.10
2018-07-31T20:30:42.252Z,3.00
2018-07-31T20:33:10.573Z,2.80
2018-07-31T20:35:38.972Z,2.53
2018-07-31T20:38:07.437Z,2.97
2018-07-31T20:40:35.794Z,2.70
2018-07-31T20:43:04.545Z,2.77
2018-07-31T20:45:32.896Z,3.00
2018-07-31T20:48:01.345Z,2.97
2018-07-31T20:50:29.677Z,2.70
2018-07-31T20:52:58.061Z,2.80
2018-07-31T20:55:26.924Z,2.40
2018-07-31T20:57:55.299Z,2.53
2018-07-31T21:00:23.665Z,2.40
2018-07-31T21:02:52.476Z,2.50
2018-07-31T21:05:21.382Z,2.53
2018-07-31T21:07:50.159Z,2.23
2018-07-31T21:10:18.575Z,2.17
2018-07-31T21:12:47.390Z,2.73
2018-07-31T21:15:16.148Z,2.30
2018-07-31T21:17:44.910Z,2.17
2018-07-31T21:20:13.282Z,1.70
2018-07-31T21:22:41.664Z,2.10
2018-07-31T21:25:10.152Z,2.20
2018-07-31T21:27:38.890Z,1.93
2018-07-31T21:30:07.848Z,1.90
2018-07-31T21:32:36.301Z,1.80
2018-07-31T21:35:04.742Z,1.70
2018-07-31T21:37:33.714Z,1.83
2018-07-31T21:40:02.144Z,1.90
2018-07-31T21:42:30.540Z,1.80
2018-07-31T21:44:59.319Z,1.90
2018-07-31T21:47:28.086Z,1.93
2018-07-31T21:49:57.348Z,1.73
2018-07-31T21:52:26.052Z,1.77
2018-07-31T21:54:54.953Z,2.00
2018-07-31T21:57:23.336Z,2.20
2018-07-31T21:59:51.830Z,2.00
2018-07-31T22:02:20.217Z,1.90
2018-07-31T22:04:48.602Z,2.00
2018-07-31T22:07:17.007Z,1.60
2018-07-31T22:09:45.898Z,2.00
2018-07-31T22:12:14.256Z,1.93
2018-07-31T22:14:43.105Z,1.80
2018-07-31T22:17:11.474Z,1.80
2018-07-31T22:19:40.768Z,2.17
2018-07-31T22:22:09.596Z,2.00
2018-07-31T22:24:38.538Z,2.30
2018-07-31T22:27:06.428Z,2.20
2018-07-31T22:29:34.776Z,2.80
2018-07-31T22:32:04.392Z,2.50
2018-07-31T22:34:33.228Z,2.97
2018-07-31T22:37:01.571Z,3.07
2018-07-31T22:39:29.964Z,2.93
2018-07-31T22:41:58.737Z,3.23
2018-07-31T22:44:27.096Z,3.10
2018-07-31T22:46:55.479Z,2.67
2018-07-31T22:49:24.226Z,3.07
2018-07-31T22:51:53.057Z,2.83
2018-07-31T22:54:21.785Z,3.00
2018-07-31T22:56:50.177Z,2.80
2018-07-31T22:59:18.557Z,2.77
2018-07-31T23:01:47.287Z,3.17
2018-07-31T23:04:16.056Z,3.33
2018-07-31T23:06:44.818Z,2.80
2018-07-31T23:09:13.254Z,3.90
2018-07-31T23:11:42.096Z,4.37
2018-07-31T23:14:11.621Z,4.63
2018-07-31T23:24:03.221Z,4.65
2018-07-31T23:26:32.046Z,4.50
2018-07-31T23:29:00.398Z,5.33
2018-07-31T23:31:28.806Z,5.10
2018-07-31T23:33:58.564Z,4.50
2018-07-31T23:36:27.367Z,5.03
2018-07-31T23:38:55.739Z,5.40
2018-07-31T23:41:24.520Z,5.47
2018-07-31T23:43:52.959Z,5.80
2018-07-31T23:46:21.724Z,5.10
2018-07-31T23:48:50.098Z,5.33
2018-07-31T23:51:18.881Z,4.53
2018-07-31T23:53:47.683Z,4.53
2018-07-31T23:56:16.028Z,3.83
2018-07-31T23:58:44.396Z,4.53
